Observation data for Turkey on 04/23/2019      Previous  Date  Next       Current Mesonet Observations  Soil Data  Daily Summary Page  Observations in Plain Language
KTUR 230500Z 33010KT 13/12 A3006 RMK A01 T01340124  RH  095%=      5-min Rain = 0
KTUR 230505Z 32009KT 14/12 A3006 RMK A01 T01350124  RH  095%=      5-min Rain = 0
KTUR 230510Z 33010KT 14/12 A3005 RMK A01 T01350124  RH  095%=      5-min Rain = 0
KTUR 230515Z 33010KT 14/12 A3005 RMK A01 T01350124  RH  095%=      5-min Rain = 0
KTUR 230520Z 33011KT 14/12 A3005 RMK A01 T01350124  RH  094%=      5-min Rain = 0
KTUR 230525Z 33011KT 14/12 A3005 RMK A01 T01360123  RH  094%=      5-min Rain = 0
KTUR 230530Z 33013KT 14/12 A3004 RMK A01 T01360123  RH  094%=      5-min Rain = 0
KTUR 230535Z 32015KT 14/12 A3003 RMK A01 T01350124  RH  094%=      5-min Rain = 0
KTUR 230540Z 32017KT 14/12 A3002 RMK A01 T01350123  RH  094%=      5-min Rain = 0
KTUR 230545Z 32017KT 14/12 A3001 RMK A01 T01350122  RH  094%=      5-min Rain = 0
KTUR 230550Z 32016KT 14/12 A3001 RMK A01 T01350122  RH  094%=      5-min Rain = 0
KTUR 230555Z 32013G18KT 14/12 A3002 RMK A01 T01350122  RH  094%=      5-min Rain = 0
KTUR 230600Z 32012KT 14/12 A3003 RMK A01 T01360123  RH  094%=      5-min Rain = 0
KTUR 230605Z 32012KT 14/12 A3003 RMK A01 T01350123  RH  094%=      5-min Rain = 0
KTUR 230610Z 32012KT 14/12 A3003 RMK A01 T01350123  RH  094%=      5-min Rain = 0
KTUR 230615Z 32012KT 14/12 A3003 RMK A01 T01360123  RH  094%=      5-min Rain = 0
KTUR 230620Z 33011KT 14/12 A3004 RMK A01 T01360122  RH  093%=      5-min Rain = 0
KTUR 230625Z 33011KT 14/12 A3004 RMK A01 T01360123  RH  093%=      5-min Rain = 0
KTUR 230630Z 34012KT 14/12 A3003 RMK A01 T01360123  RH  093%=      5-min Rain = 0
KTUR 230635Z 33013KT 14/12 A3003 RMK A01 T01370123  RH  093%=      5-min Rain = 0
KTUR 230640Z 33010G15KT 14/12 A3004 RMK A01 T01360123  RH  093%=      5-min Rain = 0
KTUR 230645Z 33007KT 14/12 A3005 RMK A01 T01370123  RH  093%=      5-min Rain = 0
KTUR 230650Z 30004KT 14/12 A3007 RMK A01 T01370123  RH  093%=      5-min Rain = 0
KTUR 230655Z 28003KT 14/12 A3007 RMK A01 T01370123  RH  093%=      5-min Rain = 0.02
KTUR 230700Z 30006KT 14/12 A3007 RMK A01 T01360123  RH  093%=      5-min Rain = 0.05
KTUR 230705Z 32008KT 14/12 A3006 RMK A01 T01350123  RH  094%=      5-min Rain = 0.04
KTUR 230710Z 34010KT 13/12 A3005 RMK A01 T01330123  RH  095%=      5-min Rain = 0.02
KTUR 230715Z 34013KT 13/13 A3004 RMK A01 T01330125  RH  096%=      5-min Rain = 0.01
KTUR 230720Z 35014KT 13/12 A3003 RMK A01 T01330124  RH  096%=      5-min Rain = 0.02
KTUR 230725Z 35011G16KT 13/12 A3003 RMK A01 T01330124  RH  096%=      5-min Rain = 0.01
KTUR 230730Z 36010KT 13/13 A3003 RMK A01 T01330125  RH  097%=      5-min Rain = 0.01
KTUR 230735Z 35012KT 13/13 A3002 RMK A01 T01330125  RH  097%=      5-min Rain = 0.01
KTUR 230740Z 35011KT 13/13 A3002 RMK A01 T01330125  RH  097%=      5-min Rain = 0.01
KTUR 230745Z 35011KT 13/13 A3002 RMK A01 T01330125  RH  097%=      5-min Rain = 0.01
KTUR 230750Z 34012KT 13/13 A3001 RMK A01 T01320125  RH  097%=      5-min Rain = 0
KTUR 230755Z 34012KT 13/13 A3001 RMK A01 T01320125  RH  097%=      5-min Rain = 0
KTUR 230800Z 34011KT 13/13 A3001 RMK A01 T01320125  RH  097%=      5-min Rain = 0
KTUR 230805Z 33012KT 13/13 A30 RMK A01 T01320125  RH  098%=      5-min Rain = 0.01
KTUR 230810Z 33011KT 13/13 A30 RMK A01 T01320125  RH  098%=      5-min Rain = 0
KTUR 230815Z 34011KT 13/13 A30 RMK A01 T01320125  RH  098%=      5-min Rain = 0
KTUR 230820Z 34012KT 13/13 A30 RMK A01 T01320125  RH  098%=      5-min Rain = 0
KTUR 230825Z 34011KT 13/13 A30 RMK A01 T01320125  RH  098%=      5-min Rain = 0
KTUR 230830Z 34011KT 13/13 A30 RMK A01 T01320125  RH  098%=      5-min Rain = 0
KTUR 230835Z 34010G15KT 13/13 A30 RMK A01 T01320126  RH  098%=      5-min Rain = 0
KTUR 230840Z 34010KT 13/13 A30 RMK A01 T01320125  RH  097%=      5-min Rain = 0
KTUR 230845Z 34008KT 13/13 A3001 RMK A01 T01320126  RH  097%=      5-min Rain = 0
KTUR 230850Z 34008KT 13/13 A3001 RMK A01 T01330126  RH  097%=      5-min Rain = 0
KTUR 230855Z 35009KT 13/13 A3001 RMK A01 T01320125  RH  097%=      5-min Rain = 0
KTUR 230900Z 35008KT 13/13 A3001 RMK A01 T01330126  RH  097%=      5-min Rain = 0
KTUR 230905Z 35010KT 13/13 A30 RMK A01 T01330126  RH  098%=      5-min Rain = 0
KTUR 230910Z 34009KT 13/13 A30 RMK A01 T01330126  RH  098%=      5-min Rain = 0.02
KTUR 230915Z 34009KT 13/13 A30 RMK A01 T01320126  RH  098%=      5-min Rain = 0
KTUR 230920Z 32008KT 13/13 A3001 RMK A01 T01330127  RH  098%=      5-min Rain = 0.01
KTUR 230925Z 33009KT 13/13 A30 RMK A01 T01330127  RH  098%=      5-min Rain = 0
KTUR 230930Z 33010KT 13/13 A30 RMK A01 T01330127  RH  098%=      5-min Rain = 0
KTUR 230935Z 34009KT 13/13 A30 RMK A01 T01330127  RH  098%=      5-min Rain = 0
KTUR 230940Z 35010KT 13/13 A2999 RMK A01 T01330127  RH  098%=      5-min Rain = 0
KTUR 230945Z 35011KT 13/13 A2999 RMK A01 T01330127  RH  098%=      5-min Rain = 0
KTUR 230950Z 36008KT 13/13 A2999 RMK A01 T01340128  RH  098%=      5-min Rain = 0
KTUR 230955Z 31006KT 13/13 A3001 RMK A01 T01340128  RH  098%=      5-min Rain = 0
KTUR 231000Z 25010KT 13/13 A3004 RMK A01 T01340129  RH  098%=      5-min Rain = 0
KTUR 231005Z 27011KT 13/13 A3003 RMK A01 T01340128  RH  098%=      5-min Rain = 0.19
KTUR 231010Z 33010KT 13/13 A3001 RMK A01 T01330127  RH  098%=      5-min Rain = 0.06
KTUR 231015Z 33010KT 13/13 A3001 RMK A01 T01320127  RH  098%=      5-min Rain = 0.01
KTUR 231020Z 35009KT 13/13 A3001 RMK A01 T01320127  RH  098%=      5-min Rain = 0.01
KTUR 231025Z 35009KT 13/13 A30 RMK A01 T01320127  RH  099%=      5-min Rain = 0
KTUR 231030Z 34009KT 13/13 A30 RMK A01 T01320127  RH  099%=      5-min Rain = 0
KTUR 231035Z 34009KT 13/13 A30 RMK A01 T01320127  RH  099%=      5-min Rain = 0
KTUR 231040Z 35009KT 13/13 A30 RMK A01 T01320127  RH  099%=      5-min Rain = 0
KTUR 231045Z 35009KT 13/13 A30 RMK A01 T01320127  RH  099%=      5-min Rain = 0.01
KTUR 231050Z 34008KT 13/13 A30 RMK A01 T01330128  RH  099%=      5-min Rain = 0
KTUR 231055Z 33006KT 13/13 A3002 RMK A01 T01330128  RH  099%=      5-min Rain = 0.01
KTUR 231100Z 27003KT 13/13 A3005 RMK A01 T01330128  RH  099%=      5-min Rain = 0.01
KTUR 231105Z 22003KT 13/13 A3006 RMK A01 T01330128  RH  099%=      5-min Rain = 0.01
KTUR 231110Z 19002KT 13/13 A3006 RMK A01 T01340129  RH  099%=      5-min Rain = 0.02
KTUR 231115Z 15002KT 13/13 A3006 RMK A01 T01340129  RH  099%=      5-min Rain = 0.04
KTUR 231120Z 04007KT 13/13 A3003 RMK A01 T01340129  RH  099%=      5-min Rain = 0.03
KTUR 231125Z 36009KT 13/13 A3002 RMK A01 T01340129  RH  099%=      5-min Rain = 0.03
KTUR 231130Z 33011KT 13/13 A3001 RMK A01 T01330128  RH  099%=      5-min Rain = 0.02
KTUR 231135Z 31012KT 13/13 A3001 RMK A01 T01330128  RH  099%=      5-min Rain = 0.02
KTUR 231140Z 30010KT 13/13 A3002 RMK A01 T01320128  RH  099%=      5-min Rain = 0.02
KTUR 231145Z 31010KT 13/13 A3002 RMK A01 T01320128  RH  099%=      5-min Rain = 0.02
KTUR 231150Z 36008KT 13/13 A3001 RMK A01 T01320128  RH  099%=      5-min Rain = 0.02
KTUR 231155Z 02007KT 13/13 A3001 RMK A01 T01320128  RH  099%=      5-min Rain = 0.01
KTUR 231200Z 00007KT 13/13 A3001 RMK A01 T01320128  RH  099%=      5-min Rain = 0
KTUR 231205Z 00010KT 13/13 A3001 RMK A01 T01330128  RH  099%=      5-min Rain = 0
KTUR 231210Z 00007KT 13/13 A3003 RMK A01 T01330129  RH  099%=      5-min Rain = 0
KTUR 231215Z 35009KT 13/13 A3003 RMK A01 T01330129  RH  099%=      5-min Rain = 0
KTUR 231220Z 33009KT 13/13 A3004 RMK A01 T01330129  RH  099%=      5-min Rain = 0
KTUR 231225Z 33009KT 13/13 A3004 RMK A01 T01330129  RH  099%=      5-min Rain = 0
KTUR 231230Z 33009KT 13/13 A3004 RMK A01 T01330129  RH  099%=      5-min Rain = 0
KTUR 231235Z 34010KT 13/13 A3004 RMK A01 T01330128  RH  099%=      5-min Rain = 0
KTUR 231240Z 34010KT 13/13 A3005 RMK A01 T01320128  RH  099%=      5-min Rain = 0
KTUR 231245Z 35009KT 13/13 A3005 RMK A01 T01320128  RH  099%=      5-min Rain = 0
KTUR 231250Z 36008KT 13/13 A3005 RMK A01 T01320128  RH  099%=      5-min Rain = 0
KTUR 231255Z 35009KT 13/13 A3005 RMK A01 T01330129  RH  099%=      5-min Rain = 0
KTUR 231300Z 35007KT 13/13 A3005 RMK A01 T01340129  RH  099%=      5-min Rain = 0
KTUR 231305Z 36007KT 14/13 A3005 RMK A01 T01350131  RH  099%=      5-min Rain = 0
KTUR 231310Z 35009KT 13/13 A3005 RMK A01 T01340130  RH  099%=      5-min Rain = 0
KTUR 231315Z 35009KT 13/13 A3006 RMK A01 T01340130  RH  099%=      5-min Rain = 0
KTUR 231320Z 00008KT 13/13 A3006 RMK A01 T01340130  RH  099%=      5-min Rain = 0
KTUR 231325Z 36007KT 13/13 A3006 RMK A01 T01340130  RH  099%=      5-min Rain = 0
KTUR 231330Z 35006KT 14/13 A3007 RMK A01 T01350130  RH  099%=      5-min Rain = 0
KTUR 231335Z 35006KT 14/13 A3007 RMK A01 T01350130  RH  099%=      5-min Rain = 0
KTUR 231340Z 35007KT 14/13 A3007 RMK A01 T01350130  RH  099%=      5-min Rain = 0
KTUR 231345Z 35006KT 14/13 A3007 RMK A01 T01350131  RH  099%=      5-min Rain = 0
KTUR 231350Z 36006KT 14/13 A3007 RMK A01 T01350130  RH  099%=      5-min Rain = 0
KTUR 231355Z 01006KT 14/13 A3007 RMK A01 T01350131  RH  099%=      5-min Rain = 0
KTUR 231400Z 01005KT 14/13 A3008 RMK A01 T01350131  RH  099%=      5-min Rain = 0
KTUR 231405Z 00005KT 14/13 A3008 RMK A01 T01360131  RH  099%=      5-min Rain = 0
KTUR 231410Z 00005KT 14/13 A3008 RMK A01 T01360131  RH  098%=      5-min Rain = 0
KTUR 231415Z 00006KT 14/13 A3008 RMK A01 T01370131  RH  098%=      5-min Rain = 0
KTUR 231420Z 01006KT 14/13 A3008 RMK A01 T01370131  RH  098%=      5-min Rain = 0.01
KTUR 231425Z 01007KT 14/13 A3008 RMK A01 T01370131  RH  098%=      5-min Rain = 0
KTUR 231430Z 01007KT 14/13 A3008 RMK A01 T01370131  RH  098%=      5-min Rain = 0
KTUR 231435Z 01007KT 14/13 A3008 RMK A01 T01370131  RH  098%=      5-min Rain = 0
KTUR 231440Z 00008KT 14/13 A3007 RMK A01 T01370131  RH  098%=      5-min Rain = 0.01
KTUR 231445Z 01009KT 14/13 A3007 RMK A01 T01370131  RH  098%=      5-min Rain = 0
KTUR 231450Z 01009KT 14/13 A3007 RMK A01 T01370131  RH  098%=      5-min Rain = 0
KTUR 231455Z 00010KT 14/13 A3007 RMK A01 T01370131  RH  098%=      5-min Rain = 0
KTUR 231500Z 01007KT 14/13 A3007 RMK A01 T01380132  RH  098%=      5-min Rain = 0.01
KTUR 231505Z 01008KT 14/13 A3007 RMK A01 T01380132  RH  098%=      5-min Rain = 0
KTUR 231510Z 36008KT 14/13 A3007 RMK A01 T01380131  RH  098%=      5-min Rain = 0
KTUR 231515Z 36013KT 14/13 A3006 RMK A01 T01350128  RH  097%=      5-min Rain = 0
KTUR 231520Z 01011G16KT 13/13 A3007 RMK A01 T01340127  RH  098%=      5-min Rain = 0.01
KTUR 231525Z 36016G21KT 13/12 A3007 RMK A01 T01310124  RH  097%=      5-min Rain = 0
KTUR 231530Z 00015KT 13/12 A3007 RMK A01 T01270120  RH  097%=      5-min Rain = 0
KTUR 231535Z 01013KT 13/12 A3007 RMK A01 T01270120  RH  098%=      5-min Rain = 0
KTUR 231540Z 01014KT 13/12 A3008 RMK A01 T01260119  RH  098%=      5-min Rain = 0.01
KTUR 231545Z 00015KT 12/12 A3008 RMK A01 T01240118  RH  098%=      5-min Rain = 0
KTUR 231550Z 00014KT 12/12 A3008 RMK A01 T01240117  RH  097%=      5-min Rain = 0
KTUR 231555Z 00014KT 12/12 A3009 RMK A01 T01220116  RH  097%=      5-min Rain = 0
KTUR 231600Z 01013KT 12/12 A3009 RMK A01 T01220115  RH  097%=      5-min Rain = 0
KTUR 231605Z 01014KT 12/12 A301 RMK A01 T01220115  RH  097%=      5-min Rain = 0
KTUR 231610Z 02013KT 12/11 A301 RMK A01 T01210114  RH  097%=      5-min Rain = 0
KTUR 231615Z 02014KT 12/11 A3011 RMK A01 T01200112  RH  097%=      5-min Rain = 0
KTUR 231620Z 02013KT 12/11 A3011 RMK A01 T01190112  RH  097%=      5-min Rain = 0
KTUR 231625Z 01013KT 12/11 A3011 RMK A01 T01200112  RH  097%=      5-min Rain = 0
KTUR 231630Z 01013KT 12/11 A3011 RMK A01 T01200113  RH  097%=      5-min Rain = 0
KTUR 231635Z 01013KT 12/11 A3011 RMK A01 T01200113  RH  097%=      5-min Rain = 0
KTUR 231640Z 01011KT 12/12 A301 RMK A01 T01220115  RH  097%=      5-min Rain = 0
KTUR 231645Z 00012KT 12/11 A301 RMK A01 T01210114  RH  097%=      5-min Rain = 0
KTUR 231650Z 36013KT 12/11 A301 RMK A01 T01200114  RH  097%=      5-min Rain = 0
KTUR 231655Z 35014KT 12/11 A3009 RMK A01 T01200113  RH  097%=      5-min Rain = 0
KTUR 231700Z 35015KT 12/11 A3009 RMK A01 T01200113  RH  097%=      5-min Rain = 0
KTUR 231705Z 36016KT 12/11 A3009 RMK A01 T01190113  RH  097%=      5-min Rain = 0
KTUR 231710Z 35016KT 12/11 A3008 RMK A01 T01200113  RH  097%=      5-min Rain = 0
KTUR 231715Z 36015KT 12/11 A3008 RMK A01 T01210114  RH  097%=      5-min Rain = 0
KTUR 231720Z 36016KT 12/11 A3008 RMK A01 T01200113  RH  097%=      5-min Rain = 0
KTUR 231725Z 36015KT 12/11 A3009 RMK A01 T01200113  RH  097%=      5-min Rain = 0
KTUR 231730Z 35015KT 12/11 A3008 RMK A01 T01200113  RH  097%=      5-min Rain = 0
KTUR 231735Z 36014G19KT 12/11 A3008 RMK A01 T01220114  RH  097%=      5-min Rain = 0
KTUR 231740Z 36014KT 12/11 A3007 RMK A01 T01210114  RH  097%=      5-min Rain = 0
KTUR 231745Z 35015KT 12/11 A3007 RMK A01 T01210113  RH  097%=      5-min Rain = 0
KTUR 231750Z 36016KT 12/11 A3007 RMK A01 T01220114  RH  097%=      5-min Rain = 0
KTUR 231755Z 36015KT 12/12 A3007 RMK A01 T01240115  RH  096%=      5-min Rain = 0
KTUR 231800Z 36015KT 13/12 A3006 RMK A01 T01260115  RH  095%=      5-min Rain = 0
KTUR 231805Z 35013KT 13/12 A3006 RMK A01 T01260115  RH  094%=      5-min Rain = 0
KTUR 231810Z 35014KT 13/11 A3006 RMK A01 T01250113  RH  094%=      5-min Rain = 0
KTUR 231815Z 34014KT 12/11 A3007 RMK A01 T01220111  RH  094%=      5-min Rain = 0
KTUR 231820Z 34013KT 12/11 A3007 RMK A01 T01220111  RH  095%=      5-min Rain = 0
KTUR 231825Z 35013KT 12/11 A3006 RMK A01 T01220111  RH  095%=      5-min Rain = 0
KTUR 231830Z 34015KT 12/11 A3006 RMK A01 T01210109  RH  094%=      5-min Rain = 0
KTUR 231835Z 34013KT 12/11 A3006 RMK A01 T01220111  RH  094%=      5-min Rain = 0
KTUR 231840Z 35012G17KT 12/11 A3006 RMK A01 T01230111  RH  094%=      5-min Rain = 0
KTUR 231845Z 34013KT 12/11 A3006 RMK A01 T01230110  RH  093%=      5-min Rain = 0
KTUR 231850Z 34012KT 13/11 A3006 RMK A01 T01260110  RH  092%=      5-min Rain = 0
KTUR 231855Z 34012KT 13/11 A3006 RMK A01 T01290111  RH  090%=      5-min Rain = 0
KTUR 231900Z 33012KT 13/11 A3006 RMK A01 T01270106  RH  088%=      5-min Rain = 0
KTUR 231905Z 34010KT 13/11 A3007 RMK A01 T01280108  RH  089%=      5-min Rain = 0
KTUR 231910Z 34010KT 13/11 A3007 RMK A01 T01290108  RH  088%=      5-min Rain = 0
KTUR 231915Z 33011KT 13/10 A3007 RMK A01 T01300104  RH  086%=      5-min Rain = 0
KTUR 231920Z 34011KT 13/10 A3006 RMK A01 T01300104  RH  085%=      5-min Rain = 0
KTUR 231925Z 34011KT 13/10 A3006 RMK A01 T01320104  RH  085%=      5-min Rain = 0
KTUR 231930Z 34011KT 13/10 A3006 RMK A01 T01330103  RH  083%=      5-min Rain = 0
KTUR 231935Z 34011KT 14/10 A3006 RMK A01 T01360102  RH  081%=      5-min Rain = 0
KTUR 231940Z 34010KT 14/10 A3006 RMK A01 T01380101  RH  080%=      5-min Rain = 0
KTUR 231945Z 34009KT 14/10 A3006 RMK A01 T01400101  RH  079%=      5-min Rain = 0
KTUR 231950Z 35009KT 14/10 A3006 RMK A01 T01410100  RH  078%=      5-min Rain = 0
KTUR 231955Z 35009KT 14/10 A3006 RMK A01 T01420101  RH  077%=      5-min Rain = 0
KTUR 232000Z 36009KT 14/10 A3006 RMK A01 T01420100  RH  077%=      5-min Rain = 0
KTUR 232005Z 34009KT 14/10 A3006 RMK A01 T01420098  RH  076%=      5-min Rain = 0
KTUR 232010Z 34007KT 14/10 A3006 RMK A01 T01430100  RH  077%=      5-min Rain = 0
KTUR 232015Z 34007KT 14/10 A3006 RMK A01 T01430100  RH  076%=      5-min Rain = 0
KTUR 232020Z 32007KT 14/10 A3006 RMK A01 T01420098  RH  076%=      5-min Rain = 0
KTUR 232025Z 33007KT 14/10 A3006 RMK A01 T01430100  RH  076%=      5-min Rain = 0
KTUR 232030Z 36007KT 14/10 A3006 RMK A01 T01440102  RH  077%=      5-min Rain = 0
KTUR 232035Z 36005KT 15/10 A3006 RMK A01 T01450102  RH  076%=      5-min Rain = 0
KTUR 232040Z 34005KT 14/10 A3006 RMK A01 T01440099  RH  076%=      5-min Rain = 0
KTUR 232045Z 35005KT 15/10 A3006 RMK A01 T01460101  RH  075%=      5-min Rain = 0
KTUR 232050Z 35004KT 15/10 A3006 RMK A01 T01450098  RH  074%=      5-min Rain = 0
KTUR 232055Z 00005KT 15/10 A3006 RMK A01 T01460099  RH  075%=      5-min Rain = 0
KTUR 232100Z 01005KT 15/10 A3006 RMK A01 T01460100  RH  075%=      5-min Rain = 0
KTUR 232105Z 02005KT 15/10 A3005 RMK A01 T01470102  RH  075%=      5-min Rain = 0
KTUR 232110Z 02004KT 15/10 A3005 RMK A01 T01470099  RH  074%=      5-min Rain = 0
KTUR 232115Z 02003KT 15/10 A3005 RMK A01 T01470100  RH  075%=      5-min Rain = 0
KTUR 232120Z 02004KT 15/10 A3005 RMK A01 T01470100  RH  075%=      5-min Rain = 0
KTUR 232125Z 01003KT 15/10 A3005 RMK A01 T01470099  RH  074%=      5-min Rain = 0
KTUR 232130Z 02004KT 15/10 A3005 RMK A01 T01480102  RH  075%=      5-min Rain = 0
KTUR 232135Z 02005KT 15/10 A3005 RMK A01 T01490102  RH  075%=      5-min Rain = 0
KTUR 232140Z 02006KT 15/10 A3005 RMK A01 T01490103  RH  075%=      5-min Rain = 0
KTUR 232145Z 36007KT 15/11 A3004 RMK A01 T01500105  RH  076%=      5-min Rain = 0
KTUR 232150Z 34007KT 15/11 A3004 RMK A01 T01520106  RH  075%=      5-min Rain = 0
KTUR 232155Z 36007KT 15/11 A3003 RMK A01 T01530108  RH  076%=      5-min Rain = 0
KTUR 232200Z 33008KT 15/11 A3003 RMK A01 T01540108  RH  075%=      5-min Rain = 0
KTUR 232205Z 34009KT 15/11 A3003 RMK A01 T01540107  RH  075%=      5-min Rain = 0
KTUR 232210Z 35010KT 16/11 A3003 RMK A01 T01550106  RH  074%=      5-min Rain = 0
KTUR 232215Z 35009KT 16/11 A3003 RMK A01 T01550106  RH  074%=      5-min Rain = 0
KTUR 232220Z 35008KT 16/11 A3003 RMK A01 T01550107  RH  074%=      5-min Rain = 0
KTUR 232225Z 35008KT 16/11 A3003 RMK A01 T01570108  RH  074%=      5-min Rain = 0
KTUR 232230Z 35007KT 16/11 A3003 RMK A01 T01590110  RH  074%=      5-min Rain = 0
KTUR 232235Z 35007KT 16/11 A3002 RMK A01 T01580107  RH  073%=      5-min Rain = 0
KTUR 232240Z 34008KT 16/11 A3002 RMK A01 T01580107  RH  073%=      5-min Rain = 0
KTUR 232245Z 35007KT 16/11 A3002 RMK A01 T01590110  RH  074%=      5-min Rain = 0
KTUR 232250Z 35009KT 16/11 A3002 RMK A01 T01590108  RH  073%=      5-min Rain = 0
KTUR 232255Z 34008KT 16/11 A3002 RMK A01 T01590108  RH  073%=      5-min Rain = 0
KTUR 232300Z 33009KT 16/11 A3002 RMK A01 T01580105  RH  072%=      5-min Rain = 0
KTUR 232305Z 35009KT 16/11 A3002 RMK A01 T01590105  RH  072%=      5-min Rain = 0
KTUR 232310Z 34010KT 16/10 A3002 RMK A01 T01580103  RH  071%=      5-min Rain = 0
KTUR 232315Z 35007KT 16/11 A3002 RMK A01 T01580108  RH  073%=      5-min Rain = 0
KTUR 232320Z 36009KT 16/11 A3002 RMK A01 T01570107  RH  073%=      5-min Rain = 0
KTUR 232325Z 01007KT 16/11 A3002 RMK A01 T01570108  RH  074%=      5-min Rain = 0
KTUR 232330Z 02008KT 16/11 A3002 RMK A01 T01560108  RH  074%=      5-min Rain = 0
KTUR 232335Z 03007KT 16/11 A3002 RMK A01 T01560109  RH  075%=      5-min Rain = 0
KTUR 232340Z 03006KT 16/11 A3002 RMK A01 T01550110  RH  076%=      5-min Rain = 0
KTUR 232345Z 03006KT 15/11 A3002 RMK A01 T01540110  RH  076%=      5-min Rain = 0
KTUR 232350Z 03006KT 15/11 A3002 RMK A01 T01540110  RH  076%=      5-min Rain = 0
KTUR 232355Z 02006KT 16/11 A3002 RMK A01 T01550112  RH  077%=      5-min Rain = 0
KTUR 240000Z 03005KT 16/11 A3001 RMK A01 T01550112  RH  077%=      5-min Rain = 0
KTUR 240005Z 03006KT 15/11 A3002 RMK A01 T01540111  RH  077%=      5-min Rain = 0
KTUR 240010Z 02006KT 15/11 A3001 RMK A01 T01540113  RH  078%=      5-min Rain = 0
KTUR 240015Z 02006KT 15/11 A3002 RMK A01 T01530113  RH  079%=      5-min Rain = 0
KTUR 240020Z 02005KT 15/11 A3002 RMK A01 T01520112  RH  078%=      5-min Rain = 0
KTUR 240025Z 02006KT 15/11 A3001 RMK A01 T01530113  RH  078%=      5-min Rain = 0
KTUR 240030Z 01005KT 15/11 A3001 RMK A01 T01520112  RH  079%=      5-min Rain = 0
KTUR 240035Z 01005KT 15/11 A30 RMK A01 T01510113  RH  079%=      5-min Rain = 0
KTUR 240040Z 00006KT 15/11 A30 RMK A01 T01510113  RH  080%=      5-min Rain = 0
KTUR 240045Z 01005KT 15/11 A30 RMK A01 T01500113  RH  080%=      5-min Rain = 0
KTUR 240050Z 01005KT 15/12 A30 RMK A01 T01490115  RH  081%=      5-min Rain = 0
KTUR 240055Z 01006KT 15/11 A30 RMK A01 T01480114  RH  081%=      5-min Rain = 0
KTUR 240100Z 01006KT 15/12 A30 RMK A01 T01490116  RH  082%=      5-min Rain = 0
KTUR 240105Z 01006KT 15/11 A3001 RMK A01 T01480114  RH  082%=      5-min Rain = 0
KTUR 240110Z 03006KT 15/12 A3001 RMK A01 T01470115  RH  083%=      5-min Rain = 0
KTUR 240115Z 04006KT 15/12 A3001 RMK A01 T01460116  RH  083%=      5-min Rain = 0
KTUR 240120Z 05006KT 15/12 A3002 RMK A01 T01450116  RH  084%=      5-min Rain = 0
KTUR 240125Z 05007KT 14/12 A3002 RMK A01 T01440115  RH  084%=      5-min Rain = 0
KTUR 240130Z 04006KT 14/12 A3002 RMK A01 T01430115  RH  084%=      5-min Rain = 0
KTUR 240135Z 03006KT 14/11 A3002 RMK A01 T01420114  RH  085%=      5-min Rain = 0
KTUR 240140Z 02006KT 14/11 A3002 RMK A01 T01400113  RH  085%=      5-min Rain = 0
KTUR 240145Z 03006KT 14/11 A3002 RMK A01 T01380113  RH  087%=      5-min Rain = 0
KTUR 240150Z 03005KT 14/11 A3002 RMK A01 T01360112  RH  087%=      5-min Rain = 0
KTUR 240155Z 01004KT 14/11 A3002 RMK A01 T01350112  RH  087%=      5-min Rain = 0
KTUR 240200Z 36006KT 13/11 A3001 RMK A01 T01320111  RH  089%=      5-min Rain = 0
KTUR 240205Z 00007KT 13/11 A3001 RMK A01 T01300112  RH  090%=      5-min Rain = 0
KTUR 240210Z 01006KT 13/11 A3001 RMK A01 T01290112  RH  091%=      5-min Rain = 0
KTUR 240215Z 04004KT 13/11 A3002 RMK A01 T01270112  RH  092%=      5-min Rain = 0
KTUR 240220Z 05004KT 13/11 A3002 RMK A01 T01260112  RH  092%=      5-min Rain = 0
KTUR 240225Z 03004KT 13/11 A3001 RMK A01 T01260111  RH  092%=      5-min Rain = 0
KTUR 240230Z 00005KT 13/11 A3001 RMK A01 T01250110  RH  092%=      5-min Rain = 0
KTUR 240235Z 36003KT 12/11 A3001 RMK A01 T01230108  RH  092%=      5-min Rain = 0
KTUR 240240Z 36003KT 12/11 A3001 RMK A01 T01220109  RH  093%=      5-min Rain = 0
KTUR 240245Z 00003KT 12/11 A3002 RMK A01 T01220109  RH  093%=      5-min Rain = 0
KTUR 240250Z 01003KT 12/11 A3002 RMK A01 T01230110  RH  093%=      5-min Rain = 0
KTUR 240255Z 03003KT 12/11 A3003 RMK A01 T01230110  RH  093%=      5-min Rain = 0
KTUR 240300Z 03003KT 12/11 A3003 RMK A01 T01240110  RH  093%=      5-min Rain = 0
KTUR 240305Z 03001KT 12/11 A3003 RMK A01 T01240109  RH  092%=      5-min Rain = 0
KTUR 240310Z 02002KT 12/11 A3003 RMK A01 T01230109  RH  093%=      5-min Rain = 0
KTUR 240315Z 36003KT 12/11 A3003 RMK A01 T01230109  RH  093%=      5-min Rain = 0
KTUR 240320Z 01003KT 12/11 A3003 RMK A01 T01210108  RH  093%=      5-min Rain = 0
KTUR 240325Z 00003KT 12/11 A3003 RMK A01 T01210108  RH  093%=      5-min Rain = 0
KTUR 240330Z 32004KT 12/11 A3003 RMK A01 T01200107  RH  094%=      5-min Rain = 0
KTUR 240335Z 33004KT 12/11 A3003 RMK A01 T01190107  RH  094%=      5-min Rain = 0
KTUR 240340Z 33005KT 12/11 A3003 RMK A01 T01170106  RH  094%=      5-min Rain = 0
KTUR 240345Z 31006KT 12/11 A3003 RMK A01 T01170107  RH  095%=      5-min Rain = 0
KTUR 240350Z 31005KT 12/11 A3003 RMK A01 T01170108  RH  095%=      5-min Rain = 0
KTUR 240355Z 31005KT 12/11 A3002 RMK A01 T01170107  RH  095%=      5-min Rain = 0
KTUR 240400Z 31007KT 12/11 A3002 RMK A01 T01180107  RH  095%=      5-min Rain = 0
KTUR 240405Z 32006KT 12/11 A3002 RMK A01 T01170106  RH  094%=      5-min Rain = 0
KTUR 240410Z 34004KT 12/11 A3003 RMK A01 T01160105  RH  094%=      5-min Rain = 0
KTUR 240415Z 32004KT 12/10 A3004 RMK A01 T01150104  RH  094%=      5-min Rain = 0
KTUR 240420Z 32003KT 12/10 A3004 RMK A01 T01150103  RH  094%=      5-min Rain = 0
KTUR 240425Z 33002KT 11/10 A3004 RMK A01 T01140103  RH  095%=      5-min Rain = 0
KTUR 240430Z 33003KT 12/11 A3003 RMK A01 T01150105  RH  095%=      5-min Rain = 0
KTUR 240435Z 31005KT 12/10 A3003 RMK A01 T01150104  RH  095%=      5-min Rain = 0
KTUR 240440Z 31005KT 11/10 A3003 RMK A01 T01140104  RH  095%=      5-min Rain = 0
KTUR 240445Z 32005KT 12/10 A3003 RMK A01 T01150104  RH  095%=      5-min Rain = 0
KTUR 240450Z 32005KT 12/11 A3003 RMK A01 T01150105  RH  095%=      5-min Rain = 0
KTUR 240455Z 32005KT 12/11 A3002 RMK A01 T01160105  RH  095%=      5-min Rain = 0

Page generated in 0.0092 seconds.